Time;durP1;ratioP1;P1;durP2;ratioP2;P2;SDS_P1;SDS_P2;PMS_P1;PMS_P2;Temp;Humidity;BMP_temperature;BMP_pressure;BME280_temperature;BME280_humidity;BME280_pressure;Samples;Min_cycle;Max_cycle;Signal;HPM_P1;HPM_P2
2023/10/03 00:00:09;;;;;;;18.60;9.55;;;;;17.10;94406.00;;;;7396890;19;20475;-73
2023/10/03 00:02:37;;;;;;;19.27;10.32;;;;;16.90;94400.00;;;;7395157;19;20582;-74
2023/10/03 00:05:18;;;;;;;16.20;8.90;;;;;16.60;94404.00;;;;7397709;19;20143;-74
2023/10/03 00:07:53;;;;;;;17.55;9.00;;;;;16.70;94400.00;;;;7396793;19;20596;-74
2023/10/03 00:10:22;;;;;;;19.58;9.32;;;;;16.60;94402.00;;;;7393817;19;20164;-76
2023/10/03 00:13:09;;;;;;;19.23;9.32;;;;;16.50;94398.00;;;;7396112;19;20133;-73
2023/10/03 00:15:45;;;;;;;18.58;9.82;;;;;16.60;94397.00;;;;7396724;19;20132;-75
2023/10/03 00:18:20;;;;;;;18.05;8.63;;;;;16.80;94389.00;;;;7396726;19;20136;-73
2023/10/03 00:20:54;;;;;;;17.52;8.90;;;;;17.10;94388.00;;;;7395405;19;20131;-75
2023/10/03 00:23:28;;;;;;;16.95;8.90;;;;;17.10;94381.00;;;;7395215;19;20592;-72
2023/10/03 00:26:03;;;;;;;15.85;7.45;;;;;17.80;94384.00;;;;7395004;19;20132;-74
2023/10/03 00:28:33;;;;;;;15.32;8.27;;;;;18.20;94373.00;;;;7396854;19;20156;-80
2023/10/03 00:31:13;;;;;;;18.30;8.52;;;;;18.70;94374.00;;;;7395725;19;20133;-81
2023/10/03 00:33:49;;;;;;;14.68;7.63;;;;;18.70;94367.00;;;;7393252;19;20592;-81
2023/10/03 00:36:25;;;;;;;16.48;8.07;;;;;18.80;94372.00;;;;7395144;19;20128;-83
2023/10/03 00:39:06;;;;;;;16.92;8.57;;;;;18.60;94369.00;;;;7398000;19;20201;-83
2023/10/03 00:41:34;;;;;;;12.68;7.07;;;;;18.90;94361.00;;;;7395947;19;20131;-81
2023/10/03 00:44:11;;;;;;;16.70;8.23;;;;;19.00;94364.00;;;;7394435;19;20169;-82
2023/10/03 00:46:40;;;;;;;14.27;7.95;;;;;19.20;94358.00;;;;7397127;19;20136;-81
2023/10/03 00:49:16;;;;;;;14.02;6.97;;;;;19.70;94356.00;;;;7396812;19;20128;-81
2023/10/03 00:51:51;;;;;;;14.60;7.05;;;;;19.80;94354.00;;;;7394438;19;20144;-82
2023/10/03 00:54:19;;;;;;;15.75;6.97;;;;;19.70;94345.00;;;;7393789;19;20489;-81
2023/10/03 00:56:54;;;;;;;15.80;7.00;;;;;19.50;94348.00;;;;7397877;19;20600;-82
2023/10/03 00:59:28;;;;;;;14.60;7.53;;;;;19.60;94338.00;;;;7402489;19;20164;-80
2023/10/03 01:02:06;;;;;;;14.02;6.88;;;;;19.70;94340.00;;;;7403316;19;20485;-82
2023/10/03 01:04:41;;;;;;;11.05;6.35;;;;;19.80;94340.00;;;;7405381;19;20152;-80
2023/10/03 01:07:20;;;;;;;14.50;6.85;;;;;19.70;94336.00;;;;7397612;19;20164;-82
2023/10/03 01:09:54;;;;;;;10.55;5.88;;;;;19.60;94345.00;;;;7395572;19;20587;-81
2023/10/03 01:12:41;;;;;;;13.13;6.35;;;;;19.50;94336.00;;;;7394919;19;20196;-81
2023/10/03 01:15:22;;;;;;;13.13;6.65;;;;;19.40;94339.00;;;;7393276;19;20168;-81
2023/10/03 01:17:59;;;;;;;11.68;6.45;;;;;19.30;94343.00;;;;7395358;19;20133;-83
2023/10/03 01:20:40;;;;;;;13.25;7.38;;;;;19.20;94343.00;;;;7394872;19;20136;-82
2023/10/03 01:23:16;;;;;;;9.70;5.97;;;;;19.10;94347.00;;;;7397210;19;20129;-81
2023/10/03 01:25:51;;;;;;;10.05;5.55;;;;;19.10;94340.00;;;;7395534;19;20148;-83
2023/10/03 01:28:19;;;;;;;9.52;5.72;;;;;19.00;94344.00;;;;7394334;19;20129;-82
2023/10/03 01:30:54;;;;;;;13.10;5.75;;;;;19.00;94339.00;;;;7396908;19;20532;-80
2023/10/03 01:33:22;;;;;;;10.10;5.55;;;;;19.00;94336.00;;;;7394749;19;20129;-82
2023/10/03 01:35:58;;;;;;;12.70;6.53;;;;;19.00;94333.00;;;;7394450;19;20632;-81
2023/10/03 01:38:32;;;;;;;9.93;5.85;;;;;18.90;94329.00;;;;7395939;19;20496;-81
2023/10/03 01:41:07;;;;;;;10.85;6.05;;;;;18.90;94326.00;;;;7393030;19;20129;-75
2023/10/03 01:43:38;;;;;;;9.90;5.63;;;;;18.90;94327.00;;;;7394188;19;20457;-74
2023/10/03 01:46:12;;;;;;;11.95;6.13;;;;;19.00;94324.00;;;;7395546;19;20244;-75
2023/10/03 01:48:42;;;;;;;9.70;5.47;;;;;18.80;94323.00;;;;7400057;19;20144;-75
2023/10/03 01:51:18;;;;;;;11.23;5.88;;;;;18.80;94318.00;;;;7399427;19;20129;-75
2023/10/03 01:53:46;;;;;;;10.27;6.53;;;;;18.90;94314.00;;;;7400691;19;20146;-76
2023/10/03 01:56:20;;;;;;;10.40;6.18;;;;;18.90;94314.00;;;;7401850;19;20124;-74
2023/10/03 01:58:56;;;;;;;11.85;5.85;;;;;18.70;94314.00;;;;7400213;19;20137;-75
2023/10/03 02:01:37;;;;;;;10.13;5.90;;;;;18.70;94309.00;;;;7400501;19;20169;-74
2023/10/03 02:04:12;;;;;;;9.35;5.68;;;;;19.00;94299.00;;;;7402549;19;20498;-75
2023/10/03 02:06:47;;;;;;;12.02;5.68;;;;;19.10;94301.00;;;;7401418;19;20136;-75
2023/10/03 02:09:22;;;;;;;10.35;6.00;;;;;19.20;94300.00;;;;7399535;19;20144;-75
2023/10/03 02:12:04;;;;;;;9.20;5.57;;;;;19.30;94287.00;;;;7400423;19;20478;-74
2023/10/03 02:14:45;;;;;;;9.95;5.57;;;;;19.40;94289.00;;;;7399652;19;20133;-75
2023/10/03 02:17:19;;;;;;;11.32;5.95;;;;;19.50;94297.00;;;;7400498;19;20200;-74
2023/10/03 02:19:48;;;;;;;11.07;5.88;;;;;19.40;94294.00;;;;7401945;19;20122;-75
2023/10/03 02:22:23;;;;;;;11.73;6.32;;;;;19.40;94286.00;;;;7400945;19;20139;-75
2023/10/03 02:24:51;;;;;;;10.85;5.53;;;;;19.50;94287.00;;;;7400028;19;20132;-76
2023/10/03 02:27:23;;;;;;;15.25;5.70;;;;;19.50;94289.00;;;;7399867;19;20588;-74
2023/10/03 02:29:58;;;;;;;11.90;5.93;;;;;19.40;94286.00;;;;7398934;19;20129;-74
2023/10/03 02:32:26;;;;;;;10.98;5.47;;;;;19.30;94281.00;;;;7400095;19;20600;-75
2023/10/03 02:35:01;;;;;;;13.93;5.53;;;;;19.50;94278.00;;;;7398144;19;20910;-77
2023/10/03 02:37:29;;;;;;;9.68;5.50;;;;;19.60;94279.00;;;;7398630;19;20133;-75
2023/10/03 02:40:07;;;;;;;8.85;5.10;;;;;19.50;94277.00;;;;7398326;19;20631;-74
2023/10/03 02:42:40;;;;;;;8.98;5.50;;;;;19.50;94273.00;;;;7399044;19;20523;-75
2023/10/03 02:45:17;;;;;;;11.57;6.32;;;;;19.50;94278.00;;;;7398212;19;20141;-74
2023/10/03 02:47:45;;;;;;;9.70;5.40;;;;;19.40;94277.00;;;;7399656;19;20164;-75
2023/10/03 02:50:20;;;;;;;11.63;5.78;;;;;19.30;94277.00;;;;7399089;19;20595;-74
2023/10/03 02:52:51;;;;;;;10.63;5.45;;;;;19.20;94278.00;;;;7398516;19;20152;-76
2023/10/03 02:55:19;;;;;;;7.95;5.25;;;;;19.00;94280.00;;;;7395856;19;20148;-74
2023/10/03 02:57:54;;;;;;;9.23;5.57;;;;;18.90;94284.00;;;;7398706;19;20164;-76
2023/10/03 03:00:22;;;;;;;11.38;5.85;;;;;18.80;94280.00;;;;7398591;19;20584;-76
2023/10/03 03:02:56;;;;;;;12.73;5.13;;;;;18.90;94287.00;;;;7396749;19;20144;-73
2023/10/03 03:05:35;;;;;;;12.52;5.32;;;;;18.80;94288.00;;;;7398351;19;20200;-75
2023/10/03 03:08:21;;;;;;;8.45;5.55;;;;;19.00;94286.00;;;;7397279;19;20619;-75
2023/10/03 03:10:57;;;;;;;9.43;5.70;;;;;19.00;94291.00;;;;7397775;19;20173;-74
2023/10/03 03:13:40;;;;;;;10.32;5.60;;;;;18.90;94287.00;;;;7397431;19;20124;-76
2023/10/03 03:16:15;;;;;;;8.88;5.35;;;;;18.80;94295.00;;;;7397706;19;20165;-74
2023/10/03 03:18:50;;;;;;;13.63;6.05;;;;;18.90;94290.00;;;;7398794;19;20212;-75
2023/10/03 03:21:21;;;;;;;12.57;5.88;;;;;18.90;94296.00;;;;7398062;19;20210;-73
2023/10/03 03:24:00;;;;;;;10.88;4.95;;;;;18.90;94295.00;;;;7397669;19;20223;-76
2023/10/03 03:26:39;;;;;;;8.73;5.35;;;;;18.90;94287.00;;;;7398111;19;20149;-73
2023/10/03 03:29:20;;;;;;;11.02;6.15;;;;;18.80;94293.00;;;;7398221;19;20157;-73
2023/10/03 03:31:55;;;;;;;9.95;5.22;;;;;18.70;94289.00;;;;7396231;19;20207;-74
2023/10/03 03:34:23;;;;;;;7.78;5.10;;;;;18.80;94288.00;;;;7397061;19;20137;-73
2023/10/03 03:37:21;;;;;;;10.35;5.47;;;;;18.80;94295.00;;;;7396264;19;20135;-73
2023/10/03 03:39:53;;;;;;;9.63;5.28;;;;;18.70;94285.00;;;;7397539;19;20135;-76
2023/10/03 03:42:28;;;;;;;9.05;5.38;;;;;18.60;94284.00;;;;7395998;19;20155;-74
2023/10/03 03:45:21;;;;;;;11.32;5.35;;;;;18.70;94281.00;;;;7396477;19;20164;-75
2023/10/03 03:47:51;;;;;;;10.48;5.65;;;;;18.60;94276.00;;;;7397928;19;20158;-74
2023/10/03 03:50:29;;;;;;;8.27;4.93;;;;;18.60;94275.00;;;;7395372;19;20155;-74
2023/10/03 03:53:02;;;;;;;8.88;5.07;;;;;18.70;94276.00;;;;7396498;19;20156;-77
2023/10/03 03:55:39;;;;;;;9.30;4.93;;;;;18.90;94269.00;;;;7395663;19;20628;-76
2023/10/03 03:58:14;;;;;;;11.30;5.47;;;;;18.80;94272.00;;;;7395504;19;20153;-75
2023/10/03 04:00:52;;;;;;;9.25;5.18;;;;;18.70;94275.00;;;;7398111;19;20157;-80
2023/10/03 04:03:34;;;;;;;8.82;5.50;;;;;18.60;94272.00;;;;7395021;19;20136;-82
2023/10/03 04:06:02;;;;;;;8.10;5.00;;;;;18.50;94263.00;;;;7397418;19;20152;-82
2023/10/03 04:08:40;;;;;;;10.57;4.95;;;;;18.60;94261.00;;;;7394912;19;20136;-81
2023/10/03 04:11:36;;;;;;;11.48;5.47;;;;;18.60;94260.00;;;;7396596;19;20137;-81
2023/10/03 04:14:20;;;;;;;9.45;5.55;;;;;18.60;94267.00;;;;7397470;19;20133;-82
2023/10/03 04:16:48;;;;;;;10.32;5.47;;;;;18.70;94261.00;;;;7393852;19;20156;-81
2023/10/03 04:19:23;;;;;;;10.05;5.03;;;;;18.60;94252.00;;;;7395435;19;20128;-81
2023/10/03 04:21:50;;;;;;;8.10;4.70;;;;;18.60;94263.00;;;;7398219;19;20143;-83
2023/10/03 04:24:19;;;;;;;10.63;5.28;;;;;18.50;94261.00;;;;7394955;19;20152;-81
2023/10/03 04:27:02;;;;;;;9.93;5.40;;;;;18.60;94262.00;;;;7396962;19;20137;-81
2023/10/03 04:29:33;;;;;;;9.35;5.47;;;;;18.70;94257.00;;;;7395960;19;20127;-81
2023/10/03 04:32:08;;;;;;;8.75;5.35;;;;;18.50;94257.00;;;;7395843;19;20141;-80
2023/10/03 04:34:35;;;;;;;9.55;5.57;;;;;18.50;94256.00;;;;7394212;19;20152;-80
2023/10/03 04:37:10;;;;;;;8.90;5.03;;;;;18.20;94261.00;;;;7396970;19;20136;-83
2023/10/03 04:39:45;;;;;;;8.85;5.57;;;;;18.40;94256.00;;;;7396529;19;20145;-80
2023/10/03 04:42:25;;;;;;;11.30;5.60;;;;;18.30;94258.00;;;;7394941;19;20499;-79
2023/10/03 04:44:54;;;;;;;11.13;5.45;;;;;18.20;94244.00;;;;7397515;19;20128;-81
2023/10/03 04:47:30;;;;;;;8.05;5.25;;;;;18.10;94250.00;;;;7395070;19;20152;-80
2023/10/03 04:50:01;;;;;;;7.35;4.97;;;;;18.00;94256.00;;;;7394759;19;20133;-80
2023/10/03 04:52:36;;;;;;;10.38;5.35;;;;;17.90;94251.00;;;;7392466;19;20161;-81
2023/10/03 04:55:04;;;;;;;9.35;5.15;;;;;17.90;94254.00;;;;7393695;19;20173;-81
2023/10/03 04:57:41;;;;;;;10.80;5.85;;;;;17.90;94244.00;;;;7394549;19;20742;-81
2023/10/03 05:00:19;;;;;;;11.32;5.00;;;;;18.00;94249.00;;;;7394811;19;20168;-81
2023/10/03 05:02:49;;;;;;;9.35;5.40;;;;;17.90;94242.00;;;;7394770;19;20871;-80
2023/10/03 05:05:25;;;;;;;8.32;5.10;;;;;17.70;94246.00;;;;7393383;19;20572;-79
2023/10/03 05:07:58;;;;;;;8.70;5.60;;;;;17.60;94249.00;;;;7394758;19;20129;-82
2023/10/03 05:10:35;;;;;;;9.38;5.47;;;;;17.50;94248.00;;;;7395954;19;20160;-80
2023/10/03 05:13:19;;;;;;;11.85;5.45;;;;;17.50;94248.00;;;;7392726;19;20144;-79
2023/10/03 05:15:47;;;;;;;8.63;5.15;;;;;17.50;94248.00;;;;7393753;19;20132;-80
2023/10/03 05:18:23;;;;;;;9.48;5.65;;;;;17.40;94250.00;;;;7393190;19;20468;-79
2023/10/03 05:20:58;;;;;;;8.50;5.28;;;;;17.60;94245.00;;;;7397637;19;20608;-77
2023/10/03 05:23:33;;;;;;;8.88;5.70;;;;;17.50;94241.00;;;;7403004;19;20129;-77
2023/10/03 05:26:07;;;;;;;10.23;5.90;;;;;17.60;94260.00;;;;7403179;19;20475;-77
2023/10/03 05:28:42;;;;;;;9.02;5.68;;;;;17.50;94250.00;;;;7401657;19;20594;-78
2023/10/03 05:31:18;;;;;;;8.23;5.03;;;;;17.30;94254.00;;;;7402151;19;20156;-78
2023/10/03 05:33:53;;;;;;;10.43;6.13;;;;;17.30;94260.00;;;;7402514;19;20121;-78
2023/10/03 05:36:27;;;;;;;9.10;5.47;;;;;17.50;94255.00;;;;7396384;19;20133;-78
2023/10/03 05:38:55;;;;;;;10.27;6.03;;;;;17.40;94254.00;;;;7400457;19;20453;-78
2023/10/03 05:41:29;;;;;;;8.73;5.43;;;;;17.30;94260.00;;;;7396481;19;20584;-80
2023/10/03 05:43:57;;;;;;;9.20;5.20;;;;;17.20;94254.00;;;;7400650;19;20121;-79
2023/10/03 05:46:32;;;;;;;10.13;6.00;;;;;17.10;94256.00;;;;7400376;19;20144;-77
2023/10/03 05:49:07;;;;;;;9.75;5.53;;;;;17.10;94257.00;;;;7398798;19;20172;-80
2023/10/03 05:51:34;;;;;;;11.45;5.32;;;;;17.10;94253.00;;;;7399406;19;20871;-79
2023/10/03 05:54:10;;;;;;;9.25;5.88;;;;;17.30;94252.00;;;;7400982;19;20128;-75
2023/10/03 05:56:39;;;;;;;9.40;5.55;;;;;17.30;94250.00;;;;7397942;19;20129;-78
2023/10/03 05:59:14;;;;;;;9.18;5.80;;;;;17.20;94254.00;;;;7397248;19;20151;-79
2023/10/03 06:01:49;;;;;;;11.10;6.10;;;;;17.20;94252.00;;;;7398646;19;20132;-79
2023/10/03 06:04:24;;;;;;;9.25;5.60;;;;;17.20;94257.00;;;;7402665;19;20132;-78
2023/10/03 06:06:54;;;;;;;10.32;6.05;;;;;17.40;94253.00;;;;7399416;19;20129;-80
2023/10/03 06:09:29;;;;;;;9.20;5.15;;;;;17.50;94252.00;;;;7397927;19;20248;-79
2023/10/03 06:12:09;;;;;;;9.95;5.55;;;;;17.50;94255.00;;;;7398680;19;21093;-79
2023/10/03 06:14:44;;;;;;;8.05;5.40;;;;;17.70;94260.00;;;;7398523;19;20212;-79
2023/10/03 06:17:19;;;;;;;10.70;5.40;;;;;17.60;94256.00;;;;7396264;19;20148;-78
2023/10/03 06:19:47;;;;;;;7.38;5.30;;;;;17.80;94257.00;;;;7400038;19;20129;-80
2023/10/03 06:22:25;;;;;;;8.63;4.93;;;;;18.10;94257.00;;;;7397176;19;20179;-76
2023/10/03 06:25:01;;;;;;;9.57;5.45;;;;;18.70;94257.00;;;;7397087;19;20129;-76
2023/10/03 06:27:37;;;;;;;7.68;5.07;;;;;19.30;94253.00;;;;7400467;19;20145;-76
2023/10/03 06:30:06;;;;;;;7.65;4.85;;;;;20.10;94251.00;;;;7398849;19;20129;-74
2023/10/03 06:32:47;;;;;;;11.70;4.63;;;;;20.50;94255.00;;;;7397292;19;20137;-75
2023/10/03 06:35:17;;;;;;;6.63;4.53;;;;;21.00;94255.00;;;;7398956;19;20140;-75
2023/10/03 06:37:52;;;;;;;8.82;4.35;;;;;21.30;94245.00;;;;7398676;19;20489;-76
2023/10/03 06:40:27;;;;;;;7.95;4.68;;;;;21.50;94256.00;;;;7383763;19;20153;-74
2023/10/03 06:42:55;;;;;;;9.02;4.65;;;;;21.70;94251.00;;;;7386590;19;20216;-75
2023/10/03 06:45:29;;;;;;;7.20;4.70;;;;;21.80;94247.00;;;;7384307;19;20128;-73
2023/10/03 06:48:04;;;;;;;9.25;4.80;;;;;22.10;94243.00;;;;7385727;19;20154;-77
2023/10/03 06:50:32;;;;;;;6.88;4.00;;;;;22.20;94247.00;;;;7392772;19;20137;-74
2023/10/03 06:53:09;;;;;;;8.23;5.18;;;;;22.50;94250.00;;;;7388511;19;20136;-73
2023/10/03 06:55:37;;;;;;;8.40;4.90;;;;;22.40;94260.00;;;;7387884;19;20168;-75
2023/10/03 06:58:12;;;;;;;7.60;4.78;;;;;22.60;94259.00;;;;7387749;19;20144;-74
2023/10/03 07:00:47;;;;;;;8.73;4.70;;;;;22.70;94261.00;;;;7388049;19;20140;-72
2023/10/03 07:03:23;;;;;;;8.85;5.03;;;;;22.80;94262.00;;;;7385687;19;20172;-72
2023/10/03 07:05:51;;;;;;;9.65;5.00;;;;;22.90;94269.00;;;;7389662;19;20163;-74
2023/10/03 07:08:26;;;;;;;10.85;4.85;;;;;22.80;94266.00;;;;7389994;19;20124;-72
2023/10/03 07:11:02;;;;;;;9.45;5.28;;;;;22.70;94271.00;;;;7388266;19;20940;-71
2023/10/03 07:13:43;;;;;;;7.43;4.97;;;;;22.80;94277.00;;;;7389545;19;20137;-73
2023/10/03 07:16:17;;;;;;;9.52;5.75;;;;;22.80;94273.00;;;;7387409;19;20132;-74
2023/10/03 07:18:45;;;;;;;6.75;5.20;;;;;23.10;94268.00;;;;7389098;19;20156;-74
2023/10/03 07:21:22;;;;;;;9.90;5.25;;;;;23.30;94264.00;;;;7388416;19;20129;-72
2023/10/03 07:23:53;;;;;;;9.93;4.85;;;;;23.40;94266.00;;;;7387893;19;20145;-73
2023/10/03 07:26:27;;;;;;;7.57;4.68;;;;;23.50;94267.00;;;;7388925;19;20614;-72
2023/10/03 07:28:58;;;;;;;10.57;4.90;;;;;23.60;94271.00;;;;7389075;19;20131;-76
2023/10/03 07:31:33;;;;;;;8.27;5.13;;;;;23.70;94266.00;;;;7390284;19;20591;-72
2023/10/03 07:34:02;;;;;;;10.60;5.28;;;;;23.70;94272.00;;;;7390323;19;20208;-72
2023/10/03 07:36:41;;;;;;;7.45;4.38;;;;;23.90;94265.00;;;;7391309;19;20517;-73
2023/10/03 07:39:17;;;;;;;8.52;5.25;;;;;23.70;94279.00;;;;7389183;19;20148;-73
2023/10/03 07:41:50;;;;;;;10.88;5.70;;;;;23.70;94274.00;;;;7388486;19;20173;-73
2023/10/03 07:44:28;;;;;;;9.95;4.95;;;;;23.20;94284.00;;;;7388769;19;20133;-74
2023/10/03 07:46:57;;;;;;;9.52;4.93;;;;;23.30;94283.00;;;;7391239;19;20523;-73
2023/10/03 07:49:32;;;;;;;10.68;5.22;;;;;23.00;94298.00;;;;7389971;19;20144;-72
2023/10/03 07:52:12;;;;;;;11.15;4.97;;;;;23.10;94287.00;;;;7388560;19;20580;-71
2023/10/03 07:54:54;;;;;;;9.65;4.80;;;;;23.20;94295.00;;;;7388200;19;20150;-72
2023/10/03 07:57:31;;;;;;;10.13;5.05;;;;;23.10;94303.00;;;;7387418;19;20160;-72
2023/10/03 08:00:07;;;;;;;7.20;4.90;;;;;23.00;94295.00;;;;7386416;19;20207;-74
2023/10/03 08:02:43;;;;;;;8.52;5.35;;;;;22.80;94296.00;;;;7389370;19;20167;-71
2023/10/03 08:05:12;;;;;;;9.40;4.97;;;;;22.60;94300.00;;;;7383808;19;20157;-73
2023/10/03 08:07:49;;;;;;;9.30;4.88;;;;;22.60;94298.00;;;;7388828;19;20136;-73
2023/10/03 08:10:19;;;;;;;8.60;4.97;;;;;22.50;94309.00;;;;7389091;19;20152;-75
2023/10/03 08:13:02;;;;;;;8.27;4.45;;;;;22.50;94301.00;;;;7390101;19;20678;-72
2023/10/03 08:15:31;;;;;;;8.13;5.00;;;;;22.40;94303.00;;;;7389413;19;20148;-74
2023/10/03 08:18:17;;;;;;;8.98;4.43;;;;;22.30;94309.00;;;;7391082;19;20136;-74
2023/10/03 08:20:53;;;;;;;10.45;5.30;;;;;22.30;94299.00;;;;7383477;19;20266;-72
2023/10/03 08:23:28;;;;;;;9.27;4.93;;;;;22.30;94296.00;;;;7386746;19;20497;-72
2023/10/03 08:26:01;;;;;;;8.88;4.70;;;;;22.50;94300.00;;;;7384627;19;20145;-75
2023/10/03 08:28:38;;;;;;;8.65;4.80;;;;;22.30;94302.00;;;;7388446;19;20172;-73
2023/10/03 08:31:14;;;;;;;8.10;4.65;;;;;22.40;94310.00;;;;7384043;19;20136;-74
2023/10/03 08:33:53;;;;;;;7.38;4.65;;;;;22.40;94312.00;;;;7385992;19;20124;-75
2023/10/03 08:36:22;;;;;;;8.05;4.63;;;;;22.50;94311.00;;;;7385370;19;20140;-74
2023/10/03 08:39:04;;;;;;;8.02;4.60;;;;;22.60;94323.00;;;;7386858;19;20691;-73
2023/10/03 08:41:48;;;;;;;6.53;4.85;;;;;22.30;94309.00;;;;7384740;19;20144;-74
2023/10/03 08:44:27;;;;;;;6.97;4.68;;;;;22.60;94327.00;;;;7384478;19;20121;-74
2023/10/03 08:47:09;;;;;;;9.95;5.05;;;;;22.60;94312.00;;;;7387396;19;20121;-74
2023/10/03 08:49:40;;;;;;;8.52;5.10;;;;;22.50;94300.00;;;;7386625;19;20611;-73
2023/10/03 08:52:16;;;;;;;7.93;4.75;;;;;22.60;94296.00;;;;7384884;19;20493;-73
2023/10/03 08:54:44;;;;;;;7.22;4.88;;;;;23.20;94307.00;;;;7382396;19;20148;-74
2023/10/03 08:57:23;;;;;;;9.85;4.90;;;;;23.30;94298.00;;;;7394957;19;20651;-77
2023/10/03 08:59:59;;;;;;;9.65;5.07;;;;;23.10;94305.00;;;;7394361;19;20172;-78
2023/10/03 09:02:45;;;;;;;8.65;4.85;;;;;23.00;94301.00;;;;7394045;19;20180;-77
2023/10/03 09:05:24;;;;;;;10.95;4.88;;;;;23.10;94309.00;;;;7393185;19;20136;-74
2023/10/03 09:08:00;;;;;;;6.72;4.50;;;;;23.40;94303.00;;;;7387116;19;20132;-75
2023/10/03 09:10:55;;;;;;;8.82;4.60;;;;;23.20;94320.00;;;;7392621;19;20147;-74
2023/10/03 09:13:36;;;;;;;7.35;4.50;;;;;23.10;94309.00;;;;7394548;19;20196;-75
2023/10/03 09:16:08;;;;;;;6.70;4.53;;;;;23.20;94314.00;;;;7394018;19;20124;-75
2023/10/03 09:18:55;;;;;;;10.07;5.18;;;;;23.80;94296.00;;;;7392496;19;20136;-73
2023/10/03 09:21:27;;;;;;;8.18;4.90;;;;;24.00;94299.00;;;;7392483;19;20179;-73
2023/10/03 09:24:17;;;;;;;10.07;4.88;;;;;24.20;94290.00;;;;7395332;19;20584;-74
2023/10/03 09:26:54;;;;;;;8.55;4.82;;;;;24.10;94292.00;;;;7394958;19;20604;-79
2023/10/03 09:29:30;;;;;;;8.75;4.82;;;;;23.80;94298.00;;;;7394558;19;20140;-72
2023/10/03 09:32:20;;;;;;;8.32;4.68;;;;;23.80;94302.00;;;;7394952;19;20156;-71
2023/10/03 09:35:09;;;;;;;7.25;4.55;;;;;23.90;94305.00;;;;7394589;19;20616;-73
2023/10/03 09:37:48;;;;;;;9.25;4.65;;;;;23.70;94315.00;;;;7391641;19;20678;-73
2023/10/03 09:40:22;;;;;;;7.10;4.85;;;;;23.80;94316.00;;;;7396312;19;20139;-76
2023/10/03 09:42:53;;;;;;;6.75;5.03;;;;;23.50;94303.00;;;;7387320;19;20129;-75
2023/10/03 09:45:31;;;;;;;6.28;4.72;;;;;23.70;94309.00;;;;7389049;19;20151;-79
2023/10/03 09:48:07;;;;;;;10.88;5.03;;;;;23.50;94293.00;;;;7385734;19;20148;-74
2023/10/03 09:50:53;;;;;;;8.10;5.00;;;;;23.40;94296.00;;;;7395189;19;20164;-77
2023/10/03 09:53:29;;;;;;;6.35;4.65;;;;;23.30;94306.00;;;;7393843;19;20631;-75
2023/10/03 09:56:08;;;;;;;6.38;4.47;;;;;23.30;94301.00;;;;7393813;19;20144;-77
2023/10/03 09:58:46;;;;;;;7.15;4.82;;;;;23.10;94306.00;;;;7392040;19;20517;-77
2023/10/03 10:01:21;;;;;;;8.45;5.07;;;;;23.10;94302.00;;;;7390325;19;20135;-80
2023/10/03 10:03:52;;;;;;;8.27;5.05;;;;;23.20;94303.00;;;;7388991;19;20153;-74
2023/10/03 10:06:38;;;;;;;6.60;5.03;;;;;23.30;94289.00;;;;7384054;19;20137;-74
2023/10/03 10:09:23;;;;;;;7.95;4.82;;;;;23.80;94288.00;;;;7377471;19;20588;-74
2023/10/03 10:12:25;;;;;;;8.45;4.72;;;;;24.00;94284.00;;;;7380204;19;20171;-71
2023/10/03 10:15:14;;;;;;;9.50;4.93;;;;;24.20;94291.00;;;;7381951;19;20136;-73
2023/10/03 10:17:54;;;;;;;10.05;5.03;;;;;24.50;94299.00;;;;7384093;19;20128;-74
2023/10/03 10:20:34;;;;;;;9.85;5.55;;;;;24.50;94294.00;;;;7377415;19;20202;-75
2023/10/03 10:25:56;;;;;;;8.32;5.00;;;;;24.60;94296.00;;;;7384793;19;20152;-75
2023/10/03 10:28:34;;;;;;;9.32;5.32;;;;;24.70;94296.00;;;;7385094;19;20152;-74
2023/10/03 10:31:22;;;;;;;7.05;4.85;;;;;24.70;94301.00;;;;7387051;19;20132;-76
2023/10/03 10:34:20;;;;;;;8.57;4.80;;;;;24.50;94300.00;;;;7382855;19;20168;-77
2023/10/03 10:37:10;;;;;;;6.57;4.30;;;;;24.90;94291.00;;;;7384448;19;20220;-77
2023/10/03 10:39:56;;;;;;;8.45;4.63;;;;;25.10;94303.00;;;;7385024;19;20165;-75
2023/10/03 10:42:25;;;;;;;8.10;4.90;;;;;24.70;94301.00;;;;7385801;19;20204;-74
2023/10/03 10:45:13;;;;;;;10.25;5.07;;;;;24.80;94305.00;;;;7385499;19;20132;-76
2023/10/03 10:47:49;;;;;;;8.18;4.65;;;;;24.80;94313.00;;;;7382609;19;20161;-76
2023/10/03 10:50:27;;;;;;;7.75;4.78;;;;;24.60;94302.00;;;;7376172;19;20121;-75
2023/10/03 10:53:05;;;;;;;12.32;5.30;;;;;24.50;94304.00;;;;7377414;19;20131;-75
2023/10/03 10:55:33;;;;;;;9.48;5.10;;;;;24.90;94291.00;;;;7376602;19;20174;-75
2023/10/03 10:58:12;;;;;;;5.38;4.63;;;;;24.90;94297.00;;;;7379369;19;20137;-76
2023/10/03 11:00:42;;;;;;;7.18;5.05;;;;;25.20;94317.00;;;;7376670;19;20492;-77
2023/10/03 11:03:22;;;;;;;9.98;4.55;;;;;25.40;94291.00;;;;7379596;19;20173;-76
2023/10/03 11:05:56;;;;;;;9.20;4.97;;;;;24.90;94298.00;;;;7384133;19;20539;-73
2023/10/03 11:08:44;;;;;;;6.78;4.70;;;;;25.80;94294.00;;;;7387216;19;20607;-77
2023/10/03 11:11:24;;;;;;;6.93;4.72;;;;;26.60;94303.00;;;;7387810;19;20140;-77
2023/10/03 11:13:58;;;;;;;9.68;4.78;;;;;26.40;94294.00;;;;7386399;19;20204;-80
2023/10/03 11:16:33;;;;;;;6.85;4.72;;;;;26.40;94292.00;;;;7385210;19;20137;-78
2023/10/03 11:19:04;;;;;;;10.20;4.90;;;;;27.10;94307.00;;;;7387146;19;20128;-74
2023/10/03 11:21:41;;;;;;;8.35;4.43;;;;;27.10;94308.00;;;;7380750;19;20133;-74
2023/10/03 11:24:18;;;;;;;6.85;4.88;;;;;26.60;94313.00;;;;7382996;19;20549;-73
2023/10/03 11:27:02;;;;;;;7.18;4.45;;;;;26.30;94325.00;;;;7385596;19;20173;-76
2023/10/03 11:29:46;;;;;;;9.95;5.07;;;;;25.90;94325.00;;;;7388128;19;20503;-78
2023/10/03 11:32:26;;;;;;;9.70;5.60;;;;;24.90;94328.00;;;;7386242;19;20152;-79
2023/10/03 11:35:19;;;;;;;7.43;4.90;;;;;24.80;94334.00;;;;7384783;19;20208;-77
2023/10/03 11:37:54;;;;;;;10.43;5.30;;;;;24.00;94344.00;;;;7386434;19;20611;-80
2023/10/03 11:40:29;;;;;;;8.40;5.43;;;;;23.80;94352.00;;;;7387794;19;20156;-77
2023/10/03 11:43:07;;;;;;;8.10;5.57;;;;;23.80;94356.00;;;;7385706;19;20149;-78
2023/10/03 11:45:46;;;;;;;9.82;5.18;;;;;23.30;94342.00;;;;7388432;19;20143;-80
2023/10/03 11:48:22;;;;;;;7.85;5.35;;;;;22.90;94368.00;;;;7390421;19;20779;-78
2023/10/03 11:50:58;;;;;;;10.95;5.72;;;;;22.90;94365.00;;;;7385492;19;20156;-74
2023/10/03 11:53:34;;;;;;;10.48;5.63;;;;;22.70;94370.00;;;;7386304;19;20208;-77
2023/10/03 11:56:07;;;;;;;11.32;6.18;;;;;22.50;94367.00;;;;7386951;19;20180;-76
2023/10/03 11:58:45;;;;;;;8.93;5.38;;;;;22.00;94388.00;;;;7383969;19;20146;-78
2023/10/03 12:01:13;;;;;;;9.57;5.32;;;;;22.10;94380.00;;;;7385793;19;20136;-77
2023/10/03 12:03:54;;;;;;;8.00;5.60;;;;;21.50;94382.00;;;;7385771;19;20267;-82
2023/10/03 12:06:23;;;;;;;7.57;5.65;;;;;21.50;94391.00;;;;7386587;19;20583;-78
2023/10/03 12:08:58;;;;;;;11.00;5.90;;;;;21.40;94395.00;;;;7385583;19;20170;-78
2023/10/03 12:11:28;;;;;;;9.50;5.10;;;;;21.50;94397.00;;;;7384772;19;20168;-75
2023/10/03 12:14:11;;;;;;;10.18;5.90;;;;;21.40;94403.00;;;;7384945;19;20152;-73
2023/10/03 12:16:39;;;;;;;12.00;6.07;;;;;21.30;94391.00;;;;7384501;19;20129;-72
2023/10/03 12:19:13;;;;;;;12.32;5.70;;;;;21.20;94395.00;;;;7384848;19;20129;-75
2023/10/03 12:21:42;;;;;;;10.90;5.90;;;;;21.30;94382.00;;;;7384395;19;20145;-74
2023/10/03 12:24:19;;;;;;;10.20;5.18;;;;;21.40;94398.00;;;;7382970;19;20623;-79
2023/10/03 12:26:56;;;;;;;10.55;6.55;;;;;21.30;94383.00;;;;7385448;19;20212;-75
2023/10/03 12:29:32;;;;;;;12.52;6.65;;;;;21.30;94390.00;;;;7384812;19;20147;-77
2023/10/03 12:32:07;;;;;;;14.43;5.78;;;;;21.20;94404.00;;;;7382675;19;20167;-74
2023/10/03 12:34:43;;;;;;;8.50;5.88;;;;;21.00;94410.00;;;;7382270;19;20149;-75
2023/10/03 12:37:11;;;;;;;11.82;6.07;;;;;21.20;94405.00;;;;7384206;19;20221;-74
2023/10/03 12:39:46;;;;;;;8.95;5.68;;;;;21.10;94416.00;;;;7383937;19;20591;-75
2023/10/03 12:42:20;;;;;;;10.02;5.95;;;;;20.90;94429.00;;;;7382709;19;20200;-76
2023/10/03 12:45:03;;;;;;;11.65;6.05;;;;;20.90;94413.00;;;;7383530;19;20148;-76
2023/10/03 12:47:38;;;;;;;9.65;5.53;;;;;21.10;94407.00;;;;7384581;19;20684;-77
2023/10/03 12:50:34;;;;;;;7.65;5.55;;;;;21.10;94411.00;;;;7385452;19;20584;-76
2023/10/03 12:53:10;;;;;;;8.80;5.65;;;;;20.80;94423.00;;;;7382613;19;20133;-75
2023/10/03 12:55:40;;;;;;;11.95;5.10;;;;;20.80;94440.00;;;;7383166;19;20145;-75
2023/10/03 12:58:19;;;;;;;11.88;5.60;;;;;20.60;94432.00;;;;7383825;19;20120;-74